• Join FlightAware (Why Join?)
  • Login
  • US Flag 
12:20AM EDT


 

Airport Tracker/Info


-or-


 

Live Flight TrackerFlight Track Log ✈ TAM3362 ✈ 08-Sep-2013 ✈ SBGR / GRU - SBVT / VIX

Flight Track Log - Related Links

Times and Time Zones

All times are in EDT time to prevent confusion due to time zone crossing. See the TAM3362 flight status page for this flight to view local times or setup timezone preferences in your user account.

Time Position Orientation Groundspeed Altitude Reporting Facility
EDT Latitude Longitude Course Direction KTS MPH feet Rate Location/Type
08:14AM -23.4320 -46.4740 90° East 115 132  Level FlightAware
08:14AM -23.4280 -46.4610 71° East 165 190 2,200 4,080 Climbing FlightAware
08:15AM -23.4230 -46.4400 75° East 165 190 3,100 1,800 Climbing FlightAware
08:15AM -23.4200 -46.4310 70° East 178 205 3,300 960 Climbing FlightAware
08:15AM -23.4150 -46.4130 73° East 205 236 3,600 780 Climbing FlightAware
08:16AM -23.4070 -46.3860 72° East 241 277 3,900 900 Climbing FlightAware
08:16AM -23.4010 -46.3680 70° East 259 298 4,300 2,100 Climbing FlightAware
08:17AM -23.3870 -46.3210 72° East 281 323 5,700 2,880 Climbing FlightAware
08:17AM -23.3790 -46.2950 71° East 281 323 6,700 3,000 Climbing FlightAware
08:17AM -23.3710 -46.2670 73° East 283 326 7,700 2,340 Climbing FlightAware
08:18AM -23.3620 -46.2390 71° East 296 341 8,300 2,100 Climbing FlightAware
08:18AM -23.3540 -46.2110 73° East 299 344 9,100 2,280 Climbing FlightAware
08:19AM -23.3380 -46.1590 71° East 312 359 10,400 1,620 Climbing FlightAware
08:19AM -23.3210 -46.1020 72° East 346 398 11,000 1,440 Climbing FlightAware
08:20AM -23.3030 -46.0430 72° East 366 421 12,100 2,040 Climbing FlightAware
08:20AM -23.2840 -45.9800 72° East 373 429 13,400 2,160 Climbing FlightAware
08:21AM -23.2620 -45.9080 72° East 378 435 14,800 2,220 Climbing FlightAware
08:22AM -23.2460 -45.8530 72° East 381 438 16,000 2,400 Climbing FlightAware
08:22AM -23.2320 -45.7900 76° East 378 435 17,400 2,160 Climbing FlightAware
08:23AM -23.2160 -45.7130 77° East 386 444 18,700 1,680 Climbing FlightAware
08:23AM -23.2040 -45.6600 76° East 394 453 19,400 1,260 Climbing FlightAware
08:24AM -23.1860 -45.5750 77° East 413 475 20,200 1,440 Climbing FlightAware
08:24AM -23.1730 -45.5170 76° East 417 480 21,100 1,620 Climbing FlightAware
08:25AM -23.1570 -45.4430 77° East 424 488 22,000 1,560 Climbing FlightAware
08:26AM -23.1420 -45.3710 77° East 427 491 23,000 1,680 Climbing FlightAware
08:26AM -23.1250 -45.2950 76° East 429 494 24,000 1,500 Climbing FlightAware
08:27AM -23.1090 -45.2230 76° East 432 497 24,800 1,320 Climbing FlightAware
08:27AM -23.0930 -45.1460 77° East 437 503 25,600 1,320 Climbing FlightAware
08:28AM -23.0750 -45.0630 77° East 441 507 26,500 1,680 Climbing FlightAware
08:29AM -23.0610 -44.9980 77° East 430 495 27,600 1,500 Climbing FlightAware
08:29AM -23.0440 -44.9230 76° East 436 502 28,200 900 Climbing FlightAware
08:30AM -23.0280 -44.8480 77° East 444 511 28,700 540 Climbing FlightAware
08:30AM -23.0090 -44.7610 77° East 457 526 28,900 600 Climbing FlightAware
08:31AM -22.9930 -44.6900 76° East 463 533 29,400 900 Climbing FlightAware
08:31AM -22.9760 -44.6130 77° East 467 537 29,900 840 Climbing FlightAware
08:32AM -22.9580 -44.5310 77° East 470 541 30,400 900 Climbing FlightAware
08:33AM -22.9410 -44.4540 77° East 469 540 31,000 1,200 Climbing FlightAware
08:33AM -22.9220 -44.3730 76° East 465 535 31,800 1,080 Climbing FlightAware
08:34AM -22.9060 -44.2980 77° East 469 540 32,300 840 Climbing FlightAware
08:34AM -22.8840 -44.2110 75° East 470 541 32,800 720 Climbing FlightAware
08:35AM -22.8490 -44.1350 63° Northeast 472 543 33,200 600 Climbing FlightAware
08:36AM -22.8150 -44.0600 64° Northeast 478 550 33,500 600 Climbing FlightAware
08:36AM -22.7820 -43.9860 64° Northeast 482 555 33,900 660 Climbing FlightAware
08:37AM -22.7470 -43.9080 64° Northeast 485 558 34,300 480 Climbing FlightAware
08:37AM -22.7130 -43.8320 64° Northeast 489 563 34,500 420 Climbing FlightAware
08:38AM -22.6780 -43.7550 64° Northeast 494 568 34,800 480 Climbing FlightAware
08:38AM -22.6430 -43.6790 63° Northeast 498 573 35,100 660 Climbing FlightAware
08:39AM -22.6060 -43.5980 64° Northeast 494 568 35,600 720 Climbing FlightAware
08:40AM -22.5640 -43.5290 57° Northeast 489 563 36,000 660 Climbing FlightAware
08:40AM -22.5160 -43.4590 53° Northeast 485 558 36,400 600 Climbing FlightAware
08:41AM -22.4750 -43.3980 54° Northeast 488 562 36,700 480 Climbing FlightAware
08:41AM -22.4170 -43.3130 54° Northeast 488 562 37,000 240 Climbing FlightAware
08:42AM -22.3740 -43.2490 54° Northeast 489 563 37,000  Level FlightAware
08:43AM -22.3270 -43.1790 54° Northeast 488 562 37,000  Level FlightAware
08:43AM -22.2790 -43.1080 54° Northeast 486 559 37,000  Level FlightAware
08:44AM -22.2320 -43.0400 53° Northeast 483 556 37,000  Level FlightAware
08:44AM -22.1940 -42.9840 54° Northeast 480 552 37,000  Level FlightAware
08:45AM -22.1340 -42.8960 54° Northeast 476 548 37,000  Level FlightAware
08:46AM -22.0770 -42.8110 54° Northeast 473 544 37,000  Level FlightAware
08:46AM -22.0360 -42.7510 54° Northeast 470 541 37,000  Level FlightAware
08:47AM -21.9820 -42.6730 53° Northeast 470 541 37,000  Level FlightAware
08:48AM -21.9370 -42.6080 53° Northeast 471 542 37,000  Level FlightAware
08:48AM -21.8800 -42.5240 54° Northeast 473 544 37,000  Level FlightAware
08:49AM -21.8320 -42.4540 54° Northeast 474 545 37,000  Level FlightAware
08:49AM -21.7890 -42.3920 53° Northeast 475 547 37,000  Level FlightAware
08:50AM -21.7400 -42.3210 53° Northeast 476 548 37,000  Level FlightAware
08:51AM -21.6990 -42.2600 54° Northeast 474 545 37,000  Level FlightAware
08:51AM -21.6600 -42.2040 53° Northeast 474 545 37,000  Level FlightAware
08:52AM -21.6100 -42.1320 53° Northeast 474 545 37,000  Level FlightAware
08:52AM -21.5590 -42.0570 54° Northeast 472 543 37,000  Level FlightAware
08:53AM -21.5150 -41.9940 53° Northeast 472 543 37,000  Level FlightAware
08:54AM -21.4700 -41.9290 53° Northeast 474 545 37,000 -1,380 Level FlightAware
08:54AM -21.4240 -41.8630 53° Northeast 488 562 35,400 -3,960 Descending FlightAware
08:55AM -21.3690 -41.7830 54° Northeast 517 595 32,200 -4,620 Descending FlightAware
08:55AM -21.3280 -41.7240 53° Northeast 522 601 30,200 -3,000 Descending FlightAware
08:56AM -21.2610 -41.6270 53° Northeast 494 568 28,100 -2,640 Descending FlightAware
08:57AM -21.2170 -41.5660 52° Northeast 485 558 26,400 -1,380 Descending FlightAware
08:57AM -21.1710 -41.5010 53° Northeast 485 558 26,400  Level FlightAware
08:58AM -21.1300 -41.4420 53° Northeast 485 558 26,400  Level FlightAware
08:59AM -21.0880 -41.3820 53° Northeast 485 558 26,400  Level FlightAware
08:59AM -21.0460 -41.3230 53° Northeast 485 558 26,400 -7,620 Level FlightAware
08:59AM -21.0680 -41.3540 233° Southwest 562 647 20,600 -11,520 Descending FlightAware
09:00AM -21.0380 -41.3110 53° Northeast 444 511 19,700 -2,460 Descending FlightAware
09:00AM -21.0000 -41.2570 53° Northeast 436 502 18,400 -2,340 Descending FlightAware
09:01AM -20.9570 -41.1940 54° Northeast 420 483 17,200 -2,160 Descending FlightAware
09:01AM -20.9070 -41.1230 53° Northeast 405 466 15,800 -1,980 Descending FlightAware
09:02AM -20.8700 -41.0710 53° Northeast 394 453 14,800 -1,680 Descending FlightAware
09:03AM -20.8340 -41.0200 53° Northeast 385 443 13,800 -960 Descending FlightAware
09:03AM -20.8040 -40.9770 53° Northeast 384 442 13,700 -120 Descending FlightAware
09:04AM -20.7710 -40.9300 53° Northeast 384 442 13,700 -2,760 Level FlightAware
09:04AM -20.7260 -40.8480 60° Northeast 353 406 10,500 -3,300 Descending FlightAware
09:05AM -20.6950 -40.7960 57° Northeast 323 372 10,100 -720 Descending FlightAware
09:05AM -20.6890 -40.7860 57° Northeast 317 365 10,000 -660 Descending FlightAware
09:06AM -20.6720 -40.7580 57° Northeast 303 349 9,700 -1,140 Descending FlightAware
09:06AM -20.6540 -40.7280 57° Northeast 297 342 9,200 -720 Descending FlightAware
09:06AM -20.6330 -40.6930 57° Northeast 294 338 9,100 -120 Descending FlightAware
09:07AM -20.6180 -40.6670 58° Northeast 294 338 9,100  Level FlightAware
09:07AM -20.6030 -40.6420 57° Northeast 294 338 9,100  Level FlightAware
09:08AM -20.5870 -40.6180 55° Northeast 294 338 9,100 -1,740 Level FlightAware
09:10AM -20.4761 -40.5060 43° Northeast  Level Estimated
09:11AM -20.4172 -40.4466 43° Northeast  Level Estimated
09:11AM -20.4630 -40.4220 43° Northeast 224 258 3,500  Level FlightAware
09:11AM -20.4350 -40.4040 31° Northeast 203 234 3,500  Level FlightAware
09:11AM -20.4230 -40.3960 32° Northeast 202 232 3,500  Level FlightAware
09:12AM -20.4070 -40.3860 30° Northeast 198 228 3,500 -540 Level FlightAware
09:12AM -20.3960 -40.3780 34° Northeast 190 219 3,200 -1,320 Descending FlightAware
09:12AM -20.3730 -40.3630 31° Northeast 183 211 2,600 -1,140 Descending FlightAware
09:13AM -20.3530 -40.3490 33° Northeast 164 189 2,100 -1,080 Descending FlightAware
09:13AM -20.3430 -40.3430 29° Northeast 154 177 1,800 -1,020 Descending FlightAware
09:13AM -20.3280 -40.3340 29° Northeast 145 167 1,400 -900 Descending FlightAware
09:14AM -20.3190 -40.3270 36° Northeast 146 168 1,200 -900 Descending FlightAware
09:14AM -20.3060 -40.3180 33° Northeast 141 162 800 -960 Descending FlightAware
09:14AM -20.2940 -40.3100 32° Northeast 145 167 500 -1,020 Descending FlightAware
09:15AM -20.2830 -40.3030 31° Northeast 142 163 200 -720 Descending FlightAware
09:15AM -20.2760 -40.2990 28° Northeast 142 163 100 -420 Descending FlightAware
09:15AM -20.2710 -40.2960 29° Northeast 142 163 -240 Descending FlightAware
09:16AM -20.2650 -40.2920 32° Northeast 143 165  Level FlightAware
09:16AM -20.2600 -40.2880 37° Northeast 140 161  Level FlightAware
09:16AM -20.2570 -40.2860 32° Northeast 140 161  Level FlightAware
09:17AM -20.2530 -40.2830 35° Northeast 140 161  Level FlightAware
09:17AM -20.2540 -40.2840 223° Southwest 140 161  Level FlightAware
09:17AM -20.2570 -40.2860 212° Southwest 140 161  Level FlightAware
09:18AM -20.2570 -40.2870 270° West 140 161  Level FlightAware
09:18AM -20.2570 -40.2880 270° West 140 161  Level FlightAware
09:18AM -20.2570 -40.2890 270° West 140 161  Level FlightAware
09:19AM -20.2620 -40.2730 108° East 140 161  Level FlightAware
09:19AM -20.2620 -40.2740 270° West 140 161  Level FlightAware
09:20AM -20.2620 -40.2730 90° East 140 161  Level FlightAware
09:20AM -20.2610 -40.2750 298° West 140 161  Level FlightAware
09:21AM -20.2610 -40.2740 90° East 140 161  Level FlightAware
09:22AM -20.2620 -40.2730 137° Southeast 140 161  Level FlightAware
09:22AM -20.2610 -40.2750 298° West 140 161  Level FlightAware
09:23AM -20.2620 -40.2740 137° Southeast 140 161  Level FlightAware
09:23AM -20.2570 -40.2890 290° West 140 161  Level FlightAware
09:24AM -20.2620 -40.2730 108° East 140 161  Level FlightAware
09:24AM -20.2610 -40.2740 317° Northwest 140 161  Level FlightAware
09:24AM -20.2570 -40.2890 286° West 140 161  Level FlightAware
09:25AM -20.2620 -40.2740 110° East 140 161  Level FlightAware
09:26AM -20.2570 -40.2890 290° West 140 161  Level FlightAware
09:26AM -20.2620 -40.2730 108° East 140 161  Level FlightAware
09:27AM -20.2610 -40.2750 298° West 140 161  Level FlightAware
09:27AM -20.2610 -40.2740 90° East 140 161  Level FlightAware
09:28AM -20.2620 -40.2740 180° South 140 161  Level FlightAware
09:29AM -20.2570 -40.2890 290° West 140 161  Level FlightAware
09:30AM -20.2610 -40.2740 106° East 140 161  Level FlightAware
09:30AM -20.2620 -40.2740 180° South 140 161  Level FlightAware
09:30AM -20.2620 -40.2740 13° North 140 161  Level FlightAware
09:30AM -20.2620 -40.2740 13° North 140 161  Level FlightAware
09:33AM -20.2581 -40.2864 289° West  Level Estimated
09:34AM -20.2581 -40.2864 13° North  Level Estimated
09:36AM -20.2581 -40.2864 289° West  Level Estimated
09:37AM -20.2581 -40.2864 13° North  Level Estimated
09:38AM -20.2581 -40.2864 13° North  Level Estimated
09:39AM -20.2581 -40.2864 13° North  Level Estimated
09:40AM -20.2581 -40.2864 13° North  Level Estimated
09:41AM -20.2581 -40.2864 13° North  Level Estimated
09:44AM -20.2581 -40.2864 289° West  Level Estimated
09:45AM -20.2581 -40.2864 13° North  Level Estimated
09:46AM -20.2581 -40.2864 13° North  Level Estimated
09:47AM -20.2581 -40.2864 13° North  Level Estimated
09:48AM -20.2581 -40.2864 13° North  Level Estimated
09:49AM -20.2581 -40.2864 13° North  Level Estimated
09:50AM -20.2581 -40.2864 13° North  Level Estimated
09:51AM -20.2581 -40.2864 13° North  Level Estimated